Home > Products > Valid Products > TAF

000
FTUS43 KMQT 061723
TAFCMX
TAF
KCMX 061723Z 0618/0718 24006KT 4SM -SHSN OVC017
      TEMPO 0618/0619 2SM -SHSN
     FM062300 16005KT 5SM -SN OVC022
     FM070300 15007KT 2SM -SN OVC015
     FM071100 20007KT 3SM -SN OVC011
     FM071400 21008KT 2SM -SN BKN011=



000
FTUS43 KMQT 061723
TAFSAW
TAF
KSAW 061723Z 0618/0718 25007KT P6SM BKN025
     FM062200 22006KT P6SM OVC020
     FM070100 19007KT P6SM -SN OVC013
     FM070400 19010KT 5SM -SN OVC010
     FM070600 19012KT 2SM -SN OVC010
     FM071100 20010KT 4SM -SN OVC012=



000
FTUS43 KMQT 061723
TAFCMX
TAF
KCMX 061723Z 0618/0718 24006KT 4SM -SHSN OVC017
      TEMPO 0618/0619 2SM -SHSN
     FM062300 16005KT 5SM -SN OVC022
     FM070300 15007KT 2SM -SN OVC015
     FM071100 20007KT 3SM -SN OVC011
     FM071400 21008KT 2SM -SN BKN011=



000
FTUS43 KMQT 061723
TAFSAW
TAF
KSAW 061723Z 0618/0718 25007KT P6SM BKN025
     FM062200 22006KT P6SM OVC020
     FM070100 19007KT P6SM -SN OVC013
     FM070400 19010KT 5SM -SN OVC010
     FM070600 19012KT 2SM -SN OVC010
     FM071100 20010KT 4SM -SN OVC012=



000
FTUS43 KMQT 061639 AAB
TAFCMX
TAF AMD
KCMX 061639Z 0617/0712 23008KT 2SM -SHSN OVC015
     FM062200 18004KT 4SM -SHSN OVC022
     FM070000 13006KT 4SM -SN OVC028
     FM070400 15007KT 2SM -SN OVC014=



000
FTUS43 KMQT 061639 AAB
TAFCMX
TAF AMD
KCMX 061639Z 0617/0712 23008KT 2SM -SHSN OVC015
     FM062200 18004KT 4SM -SHSN OVC022
     FM070000 13006KT 4SM -SN OVC028
     FM070400 15007KT 2SM -SN OVC014=



000
FTUS43 KMQT 061439 AAA
TAFCMX
TAF AMD
KCMX 061439Z 0615/0712 26011KT 2SM -SHSN OVC024
     FM061900 23008KT 2SM -SHSN OVC015
     FM062200 18004KT 4SM -SHSN OVC022
     FM070000 13006KT 4SM -SN OVC028
     FM070400 15007KT 2SM -SN OVC014=



000
FTUS43 KMQT 061135
TAFSAW
TAF
KSAW 061135Z 0612/0712 24007KT P6SM BKN025
     FM061700 25007KT P6SM OVC030
     FM061900 24007KT P6SM OVC035
     FM070300 19009KT P6SM -SN OVC022
     FM070600 19009KT 3SM -SN OVC018
     FM071000 20009KT 4SM -SN OVC015=



000
FTUS43 KMQT 061135
TAFSAW
TAF
KSAW 061135Z 0612/0712 24007KT P6SM BKN025
     FM061700 25007KT P6SM OVC030
     FM061900 24007KT P6SM OVC035
     FM070300 19009KT P6SM -SN OVC022
     FM070600 19009KT 3SM -SN OVC018
     FM071000 20009KT 4SM -SN OVC015=



000
FTUS43 KMQT 061135
TAFCMX
TAF
KCMX 061135Z 0612/0712 27015KT P6SM VCSH OVC016
     FM061400 28010KT 2SM -SHSN OVC016
     FM061900 26008KT 2SM -SHSN OVC012
     FM062200 18004KT 4SM -SHSN OVC022
     FM070000 13006KT 4SM -SN OVC028
     FM070400 15007KT 2SM -SN OVC014=



000
FTUS43 KMQT 061135
TAFCMX
TAF
KCMX 061135Z 0612/0712 27015KT P6SM VCSH OVC016
     FM061400 28010KT 2SM -SHSN OVC016
     FM061900 26008KT 2SM -SHSN OVC012
     FM062200 18004KT 4SM -SHSN OVC022
     FM070000 13006KT 4SM -SN OVC028
     FM070400 15007KT 2SM -SN OVC014=



000
FTUS43 KMQT 060524
TAFSAW
TAF
KSAW 060524Z 0606/0706 22009KT P6SM BKN070
     FM061300 24006KT P6SM BKN035
     FM061700 26007KT P6SM OVC030
     FM062100 22006KT P6SM OVC040
     FM070000 16003KT 5SM -SN OVC017=



000
FTUS43 KMQT 060524
TAFCMX
TAF
KCMX 060524Z 0606/0706 27015G23KT 5SM -SHSN BKN035
     FM061000 28013G18KT 5SM -SHSN OVC028
     FM061200 28013G18KT 1 1/2SM -SHSN OVC024
     FM061800 28009KT 1 1/2SM -SHSN OVC013
     FM062000 18006KT 2SM -SHSN OVC015
     FM062300 12005KT 2SM -SHSN OVC024=



000
FTUS43 KMQT 052320
TAFCMX
TAF
KCMX 052320Z 0600/0624 20006KT P6SM SCT080
     FM060400 25013G18KT P6SM BKN035
     FM060600 27016G24KT 6SM BLSN VCSH BKN030
     FM061200 28013G18KT 1 1/2SM -SHSN OVC022
     FM061800 28009KT 2SM -SHSN OVC011
     FM062000 18006KT 2SM -SHSN OVC009
     FM062300 12005KT 1 1/2SM -SHSN OVC011=



000
FTUS43 KMQT 052320
TAFSAW
TAF
KSAW 052320Z 0600/0624 20009KT P6SM BKN070
     FM060900 23007KT P6SM BKN028
     FM061400 25006KT P6SM BKN045
     FM062000 23007KT P6SM OVC030
     FM062300 17004KT P6SM VCSH OVC022=



000
FTUS43 KMQT 052320
TAFCMX
TAF
KCMX 052320Z 0600/0624 20006KT P6SM SCT080
     FM060400 25013G18KT P6SM BKN035
     FM060600 27016G24KT 6SM BLSN VCSH BKN030
     FM061200 28013G18KT 1 1/2SM -SHSN OVC022
     FM061800 28009KT 2SM -SHSN OVC011
     FM062000 18006KT 2SM -SHSN OVC009
     FM062300 12005KT 1 1/2SM -SHSN OVC011=



000
FTUS43 KMQT 052320
TAFSAW
TAF
KSAW 052320Z 0600/0624 20009KT P6SM BKN070
     FM060900 23007KT P6SM BKN028
     FM061400 25006KT P6SM BKN045
     FM062000 23007KT P6SM OVC030
     FM062300 17004KT P6SM VCSH OVC022=



000
FTUS43 KMQT 051728
TAFSAW
TAF
KSAW 051728Z 0518/0618 30004KT P6SM SCT030
     FM052200 25005KT P6SM FEW030 BKN100
     FM060400 21009KT P6SM OVC060
     FM060600 22010KT P6SM VCSH OVC040
     FM061100 25007KT P6SM BKN035=



000
FTUS43 KMQT 051728
TAFCMX
TAF
KCMX 051728Z 0518/0618 28008KT P6SM BKN035
      TEMPO 0518/0519 BKN025
     FM052000 24008KT P6SM OVC060
     FM060400 23011G16KT P6SM VCSH OVC030
     FM060700 26013G18KT 6SM -SHSN OVC020
     FM061200 30011KT 1 1/2SM -SHSN OVC015=



000
FTUS43 KMQT 051728
TAFCMX
TAF
KCMX 051728Z 0518/0618 28008KT P6SM BKN035
      TEMPO 0518/0519 BKN025
     FM052000 24008KT P6SM OVC060
     FM060400 23011G16KT P6SM VCSH OVC030
     FM060700 26013G18KT 6SM -SHSN OVC020
     FM061200 30011KT 1 1/2SM -SHSN OVC015=



000
FTUS43 KMQT 051728
TAFSAW
TAF
KSAW 051728Z 0518/0618 30004KT P6SM SCT030
     FM052200 25005KT P6SM FEW030 BKN100
     FM060400 21009KT P6SM OVC060
     FM060600 22010KT P6SM VCSH OVC040
     FM061100 25007KT P6SM BKN035=



000
FTUS43 KMQT 051646 AAB
TAFCMX
TAF AMD
KCMX 051646Z 0517/0612 31009KT P6SM VCSH SCT025 BKN035
      TEMPO 0517/0519 BKN025
     FM052000 23006KT P6SM BKN080
     FM060200 22008KT 5SM -SHSN OVC035
     FM060600 25013G18KT 3SM -SHSN OVC026=



000
FTUS43 KMQT 051247 AAA
TAFCMX
TAF AMD
KCMX 051247Z 0513/0612 32009KT 4SM -SHSN OVC020
     FM051500 31006KT P6SM BKN016
     FM051800 28005KT P6SM BKN022
     FM052300 21006KT P6SM OVC035
     FM060200 22008KT 5SM -SHSN OVC035
     FM060600 25013G18KT 3SM -SHSN OVC026=



000
FTUS43 KMQT 051247 AAA
TAFCMX
TAF AMD
KCMX 051247Z 0513/0612 32009KT 4SM -SHSN OVC020
     FM051500 31006KT P6SM BKN016
     FM051800 28005KT P6SM BKN022
     FM052300 21006KT P6SM OVC035
     FM060200 22008KT 5SM -SHSN OVC035
     FM060600 25013G18KT 3SM -SHSN OVC026=



000
FTUS43 KMQT 051139
TAFSAW
TAF
KSAW 051139Z 0512/0612 29004KT P6SM VCSH FEW090
     FM051400 29004KT P6SM FEW100
     FM052200 24004KT P6SM BKN050
     FM060600 22010KT 5SM -SHSN OVC040=



000
FTUS43 KMQT 051139
TAFCMX
TAF
KCMX 051139Z 0512/0612 32009KT 1SM -SHSN OVC013
     FM051300 31008KT 3SM -SHSN OVC015
     FM051500 31006KT P6SM BKN016
     FM051800 28005KT P6SM BKN022
     FM052300 21006KT P6SM OVC035
     FM060200 22008KT 5SM -SHSN OVC035
     FM060600 25013G18KT 3SM -SHSN OVC026=



000
FTUS43 KMQT 051059 AAC
TAFCMX
TAF AMD
KCMX 051059Z 0511/0606 31010KT 1SM -SHSN OVC015
     FM051300 32006KT 5SM -SHSN OVC020
     FM051600 30006KT 5SM -SHSN OVC035
     FM052000 26008KT P6SM OVC030
     FM052300 21007KT P6SM OVC020
     FM060300 23007KT 6SM -SHSN OVC020=



000
FTUS43 KMQT 051059 AAC
TAFCMX
TAF AMD
KCMX 051059Z 0511/0606 31010KT 1SM -SHSN OVC015
     FM051300 32006KT 5SM -SHSN OVC020
     FM051600 30006KT 5SM -SHSN OVC035
     FM052000 26008KT P6SM OVC030
     FM052300 21007KT P6SM OVC020
     FM060300 23007KT 6SM -SHSN OVC020=



000
FTUS43 KMQT 050953 AAB
TAFCMX
TAF AMD
KCMX 050953Z 0510/0606 31010KT 3SM -SHSN OVC030
     FM051200 32006KT 5SM -SHSN OVC020
     FM051600 30006KT 5SM -SHSN OVC035
     FM052000 26008KT P6SM OVC030
     FM052300 21007KT P6SM OVC020
     FM060300 23007KT 6SM -SHSN OVC020=



000
FTUS43 KMQT 050953 AAB
TAFCMX
TAF AMD
KCMX 050953Z 0510/0606 31010KT 3SM -SHSN OVC030
     FM051200 32006KT 5SM -SHSN OVC020
     FM051600 30006KT 5SM -SHSN OVC035
     FM052000 26008KT P6SM OVC030
     FM052300 21007KT P6SM OVC020
     FM060300 23007KT 6SM -SHSN OVC020=



000
FTUS43 KMQT 050638 AAA
TAFCMX
TAF AMD
KCMX 050638Z 0507/0606 31010KT P6SM OVC035
     FM051200 32006KT 5SM -SHSN OVC020
     FM051600 30006KT 5SM -SHSN OVC035
     FM052000 26008KT P6SM OVC030
     FM052300 21007KT P6SM OVC020
     FM060300 23007KT 6SM -SHSN OVC020=



000
FTUS43 KMQT 050638 AAA
TAFCMX
TAF AMD
KCMX 050638Z 0507/0606 31010KT P6SM OVC035
     FM051200 32006KT 5SM -SHSN OVC020
     FM051600 30006KT 5SM -SHSN OVC035
     FM052000 26008KT P6SM OVC030
     FM052300 21007KT P6SM OVC020
     FM060300 23007KT 6SM -SHSN OVC020=



000
FTUS43 KMQT 050522
TAFSAW
TAF
KSAW 050522Z 0506/0606 23005KT P6SM SCT060
     FM051700 30005KT P6SM BKN080
     FM052100 23005KT P6SM BKN060
     FM060000 20004KT P6SM OVC019
     FM060300 20007KT P6SM VCSH OVC028=



000
FTUS43 KMQT 050522
TAFCMX
TAF
KCMX 050522Z 0506/0606 31010KT 6SM -SHSN OVC035
      TEMPO 0506/0510 2SM -SHSN OVC015
     FM051200 32006KT 5SM -SHSN OVC020
     FM051600 30006KT 5SM -SHSN OVC035
     FM052000 26008KT P6SM OVC030
     FM052300 21007KT P6SM OVC020
     FM060300 23007KT 6SM -SHSN OVC020=



000
FTUS43 KMQT 050522
TAFSAW
TAF
KSAW 050522Z 0506/0606 23005KT P6SM SCT060
     FM051700 30005KT P6SM BKN080
     FM052100 23005KT P6SM BKN060
     FM060000 20004KT P6SM OVC019
     FM060300 20007KT P6SM VCSH OVC028=



000
FTUS43 KMQT 050522
TAFCMX
TAF
KCMX 050522Z 0506/0606 31010KT 6SM -SHSN OVC035
      TEMPO 0506/0510 2SM -SHSN OVC015
     FM051200 32006KT 5SM -SHSN OVC020
     FM051600 30006KT 5SM -SHSN OVC035
     FM052000 26008KT P6SM OVC030
     FM052300 21007KT P6SM OVC020
     FM060300 23007KT 6SM -SHSN OVC020=



000
FTUS43 KMQT 050448 AAB
TAFSAW
TAF AMD
KSAW 050448Z 0505/0524 21005KT P6SM VCSH BKN030
     FM050600 25005KT P6SM SCT030
     FM051100 30005KT P6SM SCT030
     FM051700 30005KT P6SM BKN060
     FM052100 23005KT P6SM BKN030=



000
FTUS43 KMQT 050420 AAA
TAFCMX
TAF AMD
KCMX 050420Z 0504/0524 28011KT 2SM -SHSN OVC015
     FM050900 32011KT P6SM -SHSN OVC020
     FM051200 32006KT P6SM -SHSN OVC030
     FM051900 27008KT P6SM OVC030=



000
FTUS43 KMQT 050312 AAA
TAFSAW
TAF AMD
KSAW 050312Z 0503/0524 21005KT P6SM VCSH SCT030 BKN060
     FM050600 25005KT P6SM SCT030
     FM051100 30005KT P6SM SCT030
     FM051700 30005KT P6SM BKN060
     FM052100 23005KT P6SM BKN030=



000
FTUS43 KMQT 050312 AAA
TAFSAW
TAF AMD
KSAW 050312Z 0503/0524 21005KT P6SM VCSH SCT030 BKN060
     FM050600 25005KT P6SM SCT030
     FM051100 30005KT P6SM SCT030
     FM051700 30005KT P6SM BKN060
     FM052100 23005KT P6SM BKN030=



000
FTUS43 KMQT 042320
TAFSAW
TAF
KSAW 042320Z 0500/0524 19005KT P6SM BKN070
     FM050300 21005KT P6SM VCSH BKN028
     FM050600 25005KT P6SM SCT030
     FM051100 30005KT P6SM SCT030
     FM051700 30005KT P6SM BKN060
     FM052100 23005KT P6SM BKN030=



000
FTUS43 KMQT 042320
TAFCMX
TAF
KCMX 042320Z 0500/0524 23007KT 3SM -SHSN OVC035
     FM050100 25008KT 5SM -SHSN OVC030
     FM050400 28011G16KT P6SM -SHSN OVC024
     FM050900 32011KT P6SM -SHSN OVC020
     FM051200 32006KT P6SM -SHSN OVC030
     FM051900 27008KT P6SM OVC030=



000
FTUS43 KMQT 042320
TAFCMX
TAF
KCMX 042320Z 0500/0524 23007KT 3SM -SHSN OVC035
     FM050100 25008KT 5SM -SHSN OVC030
     FM050400 28011G16KT P6SM -SHSN OVC024
     FM050900 32011KT P6SM -SHSN OVC020
     FM051200 32006KT P6SM -SHSN OVC030
     FM051900 27008KT P6SM OVC030=



000
FTUS43 KMQT 042320
TAFSAW
TAF
KSAW 042320Z 0500/0524 19005KT P6SM BKN070
     FM050300 21005KT P6SM VCSH BKN028
     FM050600 25005KT P6SM SCT030
     FM051100 30005KT P6SM SCT030
     FM051700 30005KT P6SM BKN060
     FM052100 23005KT P6SM BKN030=



000
FTUS43 KMQT 041735
TAFCMX
TAF
KCMX 041735Z 0418/0518 20007KT P6SM BKN025
     FM042100 22007KT 4SM -SHSN OVC022
     FM042300 24009KT 2SM -SHSN OVC022
     FM050600 31011G16KT 4SM -SHSN OVC022
     FM051500 30006KT P6SM OVC020=



000
FTUS43 KMQT 041735
TAFSAW
TAF
KSAW 041735Z 0418/0518 22005KT P6SM BKN025
     FM050300 21005KT 6SM -SHSN BKN030
     FM050500 24004KT P6SM BKN035
     FM050800 28005KT P6SM SCT035
     FM051700 30005KT P6SM BKN035=



000
FTUS43 KMQT 041512 AAC
TAFSAW
TAF AMD
KSAW 041512Z 0415/0512 29004KT P6SM -SN BKN025
     FM041700 27004KT P6SM SCT025
     FM042100 24004KT P6SM BKN050
     FM050100 21003KT P6SM OVC028
     FM050900 28004KT P6SM SCT010=



000
FTUS43 KMQT 041139 AAB
TAFSAW
TAF AMD
KSAW 041139Z 0412/0512 32004KT P6SM -SN BKN023
     FM041500 27004KT P6SM SCT026
     FM041800 24004KT P6SM BKN050
     FM050100 21003KT P6SM OVC028
     FM050900 28004KT P6SM SCT010=



000
FTUS43 KMQT 041139 AAA
TAFCMX
TAF AMD
KCMX 041139Z 0412/0512 00000KT P6SM OVC022
     FM041800 20005KT P6SM OVC035
     FM042100 20005KT 4SM -SHSN OVC030
     FM050000 23004KT 3SM -SHSN OVC022
     FM050500 29009KT 3SM -SHSN OVC022
     FM050800 32012KT 3SM -SHSN OVC019=



000
FTUS43 KMQT 041139 AAB
TAFSAW
TAF AMD
KSAW 041139Z 0412/0512 32004KT P6SM -SN BKN023
     FM041500 27004KT P6SM SCT026
     FM041800 24004KT P6SM BKN050
     FM050100 21003KT P6SM OVC028
     FM050900 28004KT P6SM SCT010=



000
FTUS43 KMQT 041139 AAA
TAFCMX
TAF AMD
KCMX 041139Z 0412/0512 00000KT P6SM OVC022
     FM041800 20005KT P6SM OVC035
     FM042100 20005KT 4SM -SHSN OVC030
     FM050000 23004KT 3SM -SHSN OVC022
     FM050500 29009KT 3SM -SHSN OVC022
     FM050800 32012KT 3SM -SHSN OVC019=



000
FTUS43 KMQT 041100 AAA
TAFSAW
TAF AMD
KSAW 041100Z 0411/0506 31005KT P6SM -SN OVC023
     FM041700 24004KT P6SM BKN070
     FM050100 21005KT P6SM OVC030
     FM050300 23005KT P6SM OVC010
     FM050400 24005KT P6SM OVC022=



000
FTUS43 KMQT 040526
TAFCMX
TAF
KCMX 040526Z 0406/0506 35008KT 4SM -SHSN BKN022
     FM041000 32006KT P6SM BKN040
     FM041700 22004KT 4SM -SHSN OVC030
     FM050000 24005KT 3SM -SHSN OVC020
     FM050300 28009KT 3SM -SHSN OVC020=



000
FTUS43 KMQT 040526
TAFSAW
TAF
KSAW 040526Z 0406/0506 32008KT P6SM VCSH OVC040
     FM040800 31007KT P6SM OVC045
     FM041700 24004KT P6SM BKN070
     FM050100 21005KT P6SM OVC030
     FM050300 23005KT P6SM OVC010
     FM050400 24005KT P6SM OVC022=



000
FTUS43 KMQT 040446 AAA
TAFSAW
TAF AMD
KSAW 040446Z 0405/0424 32007KT P6SM VCSH SCT025 BKN050
     FM040800 31007KT P6SM OVC040
     FM041800 23004KT P6SM BKN050
     FM042100 20006KT P6SM OVC028=



000
FTUS43 KMQT 040444 AAA
TAFCMX
TAF AMD
KCMX 040444Z 0405/0424 34008KT 4SM -SHSN BKN026
     FM041000 32006KT P6SM BKN035
     FM041700 22004KT P6SM VCSH OVC030
     FM042300 24005KT 3SM -SHSN OVC013=



000
FTUS43 KMQT 032320
TAFCMX
TAF
KCMX 032320Z 0400/0424 35012G18KT 2SM -SHSN BLSN OVC022
     FM040200 35014G20KT 3SM -SHSN BLSN OVC026
     FM040700 34008KT 4SM -SHSN BKN026
     FM041000 32006KT P6SM BKN035
     FM041700 22004KT P6SM VCSH OVC030
     FM042300 24005KT 3SM -SHSN OVC013=



000
FTUS43 KMQT 032320
TAFSAW
TAF
KSAW 032320Z 0400/0424 33012G18KT 3SM -SHSN OVC020
     FM040400 33009KT 5SM -SHSN OVC024
     FM040600 32007KT P6SM VCSH OVC020
     FM040800 31007KT P6SM OVC040
     FM041800 23004KT P6SM BKN050
     FM042100 20006KT P6SM OVC028=



    US Dept of Commerce
    National Oceanic and Atmospheric Administration
    National Weather Service
    1325 East West Highway
    Silver Spring, MD 20910
    Page Author: NWS Internet Services Team
Disclaimer
Information Quality
Credits
Glossary
Privacy Policy
Freedom of Information Act (FOIA)
About Us
Career Opportunities